Time;durP1;ratioP1;P1;durP2;ratioP2;P2;SDS_P1;SDS_P2;PMS_P1;PMS_P2;Temp;Humidity;BMP_temperature;BMP_pressure;BME280_temperature;BME280_humidity;BME280_pressure;Samples;Min_cycle;Max_cycle;Signal;HPM_P1;HPM_P2
2022/03/09 00:01:58;;;;;;;10.73;5.00;;;;;;;;;;4820698;29;20059;-72
2022/03/09 00:04:25;;;;;;;11.85;4.97;;;;;;;;;;4834543;29;20061;-71
2022/03/09 00:06:51;;;;;;;;;;;;;;;;;;4821206;29;20483;-72
2022/03/09 00:09:17;;;;;;;11.63;4.88;;;;;;;;;;4820574;29;19925;-71
2022/03/09 00:11:43;;;;;;;11.85;5.30;;;;;;;;;;4821062;29;20154;-71
2022/03/09 00:14:09;;;;;;;12.43;5.13;;;;;;;;;;4821362;29;20056;-72
2022/03/09 00:16:35;;;;;;;11.15;5.07;;;;;;;;;;4821068;29;20176;-72
2022/03/09 00:19:01;;;;;;;13.40;5.25;;;;;;;;;;4804564;29;20054;-72
2022/03/09 00:21:27;;;;;;;12.27;5.10;;;;;;;;;;4820692;29;20091;-71
2022/03/09 00:23:53;;;;;;;11.85;5.20;;;;;;;;;;4821047;29;20061;-71
2022/03/09 00:26:19;;;;;;;13.48;5.45;;;;;;;;;;4820967;29;20153;-72
2022/03/09 00:28:45;;;;;;;11.50;5.13;;;;;;;;;;4820619;29;20114;-71
2022/03/09 00:31:11;;;;;;;12.63;5.18;;;;;;;;;;4820853;29;20433;-71
2022/03/09 00:33:38;;;;;;;13.63;5.40;;;;;;;;;;4820181;29;20469;-72
2022/03/09 00:36:04;;;;;;;12.50;5.30;;;;;;;;;;4820465;29;20058;-72
2022/03/09 00:38:30;;;;;;;11.50;5.22;;;;;;;;;;4820421;29;20050;-71
2022/03/09 00:40:56;;;;;;;10.82;5.10;;;;;;;;;;4820173;29;20138;-71
2022/03/09 00:43:22;;;;;;;12.23;5.25;;;;;;;;;;4820314;29;20452;-72
2022/03/09 00:45:48;;;;;;;13.02;5.32;;;;;;;;;;4819751;29;20084;-72
2022/03/09 00:48:15;;;;;;;13.52;5.20;;;;;;;;;;4820231;29;20066;-71
2022/03/09 00:50:42;;;;;;;12.60;5.93;;;;;;;;;;4819955;29;20054;-71
2022/03/09 00:53:08;;;;;;;13.73;5.68;;;;;;;;;;4820226;29;20069;-71
2022/03/09 00:55:34;;;;;;;14.75;5.78;;;;;;;;;;4820093;29;20062;-75
2022/03/09 00:58:00;;;;;;;19.40;5.35;;;;;;;;;;4833860;29;20126;-71
2022/03/09 01:00:26;;;;;;;12.32;5.85;;;;;;;;;;4820133;29;20061;-71
2022/03/09 01:02:52;;;;;;;12.95;5.38;;;;;;;;;;4819643;29;20145;-71
2022/03/09 01:05:18;;;;;;;12.05;6.00;;;;;;;;;;4820119;29;20086;-71
2022/03/09 01:07:44;;;;;;;12.23;6.20;;;;;;;;;;4833487;29;20065;-71
2022/03/09 01:10:11;;;;;;;12.73;6.15;;;;;;;;;;4819892;29;20451;-73
2022/03/09 01:12:37;;;;;;;12.65;5.70;;;;;;;;;;4820599;29;20157;-76
2022/03/09 01:15:04;;;;;;;15.88;6.03;;;;;;;;;;4819994;29;20129;-72
2022/03/09 01:17:31;;;;;;;13.02;6.30;;;;;;;;;;4819996;29;20059;-72
2022/03/09 01:19:57;;;;;;;12.48;6.10;;;;;;;;;;4819850;29;20058;-72
2022/03/09 01:22:23;;;;;;;14.68;6.25;;;;;;;;;;4819858;29;20149;-72
2022/03/09 01:24:49;;;;;;;13.88;6.10;;;;;;;;;;4833977;29;20061;-72
2022/03/09 01:27:15;;;;;;;13.23;6.18;;;;;;;;;;4833608;29;20046;-71
2022/03/09 01:29:44;;;;;;;13.40;6.28;;;;;;;;;;4820084;29;20102;-72
2022/03/09 01:32:11;;;;;;;;;;;;;;;;;;4805463;29;20046;-72
2022/03/09 01:34:37;;;;;;;12.60;6.22;;;;;;;;;;4823272;29;20388;-73
2022/03/09 01:37:03;;;;;;;15.85;6.15;;;;;;;;;;4823429;29;20333;-71
2022/03/09 01:39:29;;;;;;;12.88;6.20;;;;;;;;;;4823120;29;20444;-71
2022/03/09 01:41:55;;;;;;;12.63;6.20;;;;;;;;;;4823399;29;20127;-71
2022/03/09 01:44:22;;;;;;;13.40;6.28;;;;;;;;;;4806929;29;20055;-71
2022/03/09 01:46:50;;;;;;;15.57;6.72;;;;;;;;;;4822848;29;20066;-72
2022/03/09 01:49:16;;;;;;;13.70;6.25;;;;;;;;;;4823258;29;20464;-71
2022/03/09 01:51:44;;;;;;;14.45;7.13;;;;;;;;;;4822871;29;20057;-75
2022/03/09 01:54:10;;;;;;;41.97;28.90;;;;;;;;;;4822897;29;20054;-72
2022/03/09 01:56:37;;;;;;;55.28;36.85;;;;;;;;;;4822941;29;20057;-71
2022/03/09 01:59:03;;;;;;;;;;;;;;;;;;4822876;29;20095;-72
2022/03/09 02:01:29;;;;;;;29.25;17.08;;;;;;;;;;4822760;29;20023;-70
2022/03/09 02:03:56;;;;;;;22.17;12.93;;;;;;;;;;4836504;29;20058;-72
2022/03/09 02:06:22;;;;;;;18.35;10.15;;;;;;;;;;4822814;29;20411;-72
2022/03/09 02:11:33;;;;;;;16.00;9.73;;;;;;;;;;4822418;29;20081;-72
2022/03/09 02:14:00;;;;;;;17.13;9.07;;;;;;;;;;4822313;29;20065;-71
2022/03/09 02:16:26;;;;;;;14.77;7.60;;;;;;;;;;4822261;29;20055;-72
2022/03/09 02:18:52;;;;;;;13.73;7.13;;;;;;;;;;4822182;29;20145;-72
2022/03/09 02:21:19;;;;;;;14.32;7.03;;;;;;;;;;4822187;29;20053;-72
2022/03/09 02:23:45;;;;;;;14.45;6.43;;;;;;;;;;4822353;29;20106;-70
2022/03/09 02:26:11;;;;;;;13.68;7.13;;;;;;;;;;4822206;29;20137;-72
2022/03/09 02:28:46;;;;;;;13.90;6.80;;;;;;;;;;4822045;29;20055;-72
2022/03/09 02:31:12;;;;;;;14.50;7.20;;;;;;;;;;4821641;29;20247;-72
2022/03/09 02:33:38;;;;;;;14.15;7.65;;;;;;;;;;4805884;29;20118;-72
2022/03/09 02:36:05;;;;;;;13.93;7.32;;;;;;;;;;4822301;29;20141;-72
2022/03/09 02:38:31;;;;;;;15.25;7.65;;;;;;;;;;4822165;29;20050;-72
2022/03/09 02:40:57;;;;;;;16.83;7.25;;;;;;;;;;4822158;29;20094;-72
2022/03/09 02:43:23;;;;;;;14.48;7.60;;;;;;;;;;4821268;29;20050;-71
2022/03/09 02:45:49;;;;;;;14.88;7.28;;;;;;;;;;4821975;29;20050;-75
2022/03/09 02:48:15;;;;;;;14.50;7.10;;;;;;;;;;4822274;29;20066;-72
2022/03/09 02:50:42;;;;;;;13.07;7.07;;;;;;;;;;4821599;29;20164;-72
2022/03/09 02:53:08;;;;;;;14.15;7.28;;;;;;;;;;4821420;29;20137;-72
2022/03/09 02:55:35;;;;;;;14.25;7.38;;;;;;;;;;4821330;29;20046;-71
2022/03/09 02:58:01;;;;;;;16.77;7.50;;;;;;;;;;4821272;29;20054;-72
2022/03/09 03:00:27;;;;;;;15.05;6.90;;;;;;;;;;4835808;29;20130;-72
2022/03/09 03:02:53;;;;;;;15.50;7.85;;;;;;;;;;4821883;29;20050;-71
2022/03/09 03:05:19;;;;;;;14.85;7.75;;;;;;;;;;4821811;29;20062;-72
2022/03/09 03:07:45;;;;;;;15.27;7.53;;;;;;;;;;4821921;29;20094;-71
2022/03/09 03:10:11;;;;;;;18.08;7.47;;;;;;;;;;4821642;29;20130;-73
2022/03/09 03:12:37;;;;;;;14.80;7.72;;;;;;;;;;4821734;29;20093;-71
2022/03/09 03:15:05;;;;;;;15.88;7.72;;;;;;;;;;4821607;29;20126;-73
2022/03/09 03:17:34;;;;;;;15.95;8.00;;;;;;;;;;4821566;29;20065;-72
2022/03/09 03:20:00;;;;;;;15.00;7.10;;;;;;;;;;4821463;29;20054;-72
2022/03/09 03:22:26;;;;;;;15.30;8.07;;;;;;;;;;4821408;29;20106;-71
2022/03/09 03:24:52;;;;;;;16.70;7.38;;;;;;;;;;4821358;29;20163;-71
2022/03/09 03:27:18;;;;;;;15.88;8.70;;;;;;;;;;4821267;29;20089;-70
2022/03/09 03:29:44;;;;;;;17.90;8.48;;;;;;;;;;4821149;29;20054;-71
2022/03/09 03:32:11;;;;;;;16.38;7.90;;;;;;;;;;4821216;29;20141;-72
2022/03/09 03:34:37;;;;;;;14.00;7.72;;;;;;;;;;4821264;29;20054;-72
2022/03/09 03:37:03;;;;;;;14.93;8.05;;;;;;;;;;4821264;29;20057;-72
2022/03/09 03:39:29;;;;;;;15.98;8.32;;;;;;;;;;4820911;29;20448;-71
2022/03/09 03:41:55;;;;;;;14.90;7.90;;;;;;;;;;4821128;29;20086;-74
2022/03/09 03:44:21;;;;;;;16.55;8.65;;;;;;;;;;4820941;29;20050;-71
2022/03/09 03:46:47;;;;;;;14.93;8.27;;;;;;;;;;4821150;29;20078;-72
2022/03/09 03:49:13;;;;;;;16.25;7.93;;;;;;;;;;4821003;29;20127;-73
2022/03/09 03:51:39;;;;;;;15.75;8.45;;;;;;;;;;4819879;29;20054;-71
2022/03/09 03:54:06;;;;;;;15.57;8.68;;;;;;;;;;4820284;29;20050;-72
2022/03/09 03:56:32;;;;;;;18.42;8.68;;;;;;;;;;4820921;29;20046;-73
2022/03/09 03:58:58;;;;;;;17.20;8.90;;;;;;;;;;4821097;29;20153;-72
2022/03/09 04:01:25;;;;;;;16.27;8.57;;;;;;;;;;4820437;29;20042;-71
2022/03/09 04:03:51;;;;;;;17.92;8.73;;;;;;;;;;4820851;29;20162;-72
2022/03/09 04:06:23;;;;;;;15.80;8.90;;;;;;;;;;4821119;29;20057;-71
2022/03/09 04:08:49;;;;;;;16.40;8.10;;;;;;;;;;4820826;29;20088;-71
2022/03/09 04:11:15;;;;;;;18.00;8.63;;;;;;;;;;4820943;29;20077;-71
2022/03/09 04:13:42;;;;;;;18.38;8.60;;;;;;;;;;4821200;29;20174;-72
2022/03/09 04:16:08;;;;;;;16.67;8.60;;;;;;;;;;4820752;29;20061;-72
2022/03/09 04:18:34;;;;;;;17.83;8.63;;;;;;;;;;4820811;29;20058;-71
2022/03/09 04:21:01;;;;;;;16.25;8.68;;;;;;;;;;4820488;29;20054;-68
2022/03/09 04:23:27;;;;;;;17.08;8.63;;;;;;;;;;4820659;29;20086;-70
2022/03/09 04:25:53;;;;;;;18.00;8.85;;;;;;;;;;4821224;29;20157;-70
2022/03/09 04:28:19;;;;;;;15.68;8.43;;;;;;;;;;4820609;29;20058;-71
2022/03/09 04:30:45;;;;;;;18.17;9.23;;;;;;;;;;4820916;29;20068;-68
2022/03/09 04:33:11;;;;;;;17.50;9.40;;;;;;;;;;4820398;29;20134;-72
2022/03/09 04:35:37;;;;;;;17.25;8.90;;;;;;;;;;4820697;29;20153;-69
2022/03/09 04:38:06;;;;;;;16.27;8.50;;;;;;;;;;4820329;29;20054;-72
2022/03/09 04:40:33;;;;;;;15.90;8.70;;;;;;;;;;4833907;29;20145;-72
2022/03/09 04:42:59;;;;;;;15.43;8.90;;;;;;;;;;4820122;29;20153;-72
2022/03/09 04:45:25;;;;;;;15.40;8.35;;;;;;;;;;4833622;29;20442;-70
2022/03/09 04:47:51;;;;;;;16.45;8.95;;;;;;;;;;4820402;29;20452;-70
2022/03/09 04:50:17;;;;;;;16.30;8.30;;;;;;;;;;4819931;29;20060;-71
2022/03/09 04:52:44;;;;;;;17.88;9.27;;;;;;;;;;4803533;29;20065;-70
2022/03/09 04:55:10;;;;;;;18.17;8.82;;;;;;;;;;4820042;29;20460;-71
2022/03/09 04:57:36;;;;;;;15.57;8.98;;;;;;;;;;4820213;29;20368;-70
2022/03/09 05:00:03;;;;;;;;;;;;;;;;;;4820600;29;20065;-72
2022/03/09 05:02:32;;;;;;;18.35;9.55;;;;;;;;;;4818520;29;19948;-71
2022/03/09 05:04:58;;;;;;;18.60;9.07;;;;;;;;;;4820049;29;20507;-70
2022/03/09 05:07:24;;;;;;;18.27;8.65;;;;;;;;;;4819104;29;20050;-72
2022/03/09 05:09:50;;;;;;;20.27;9.70;;;;;;;;;;4819994;29;20278;-72
2022/03/09 05:12:17;;;;;;;16.60;9.05;;;;;;;;;;4820369;29;20042;-70
2022/03/09 05:14:43;;;;;;;16.50;9.05;;;;;;;;;;4803399;29;20480;-72
2022/03/09 05:17:09;;;;;;;16.92;9.35;;;;;;;;;;4820592;29;20340;-73
2022/03/09 05:19:35;;;;;;;18.13;10.25;;;;;;;;;;4833930;29;20105;-71
2022/03/09 05:22:01;;;;;;;20.20;9.75;;;;;;;;;;4834122;29;20074;-71
2022/03/09 05:24:27;;;;;;;19.75;9.32;;;;;;;;;;4820661;29;20058;-71
2022/03/09 05:26:53;;;;;;;22.83;10.10;;;;;;;;;;4834345;29;20062;-72
2022/03/09 05:29:19;;;;;;;19.10;9.65;;;;;;;;;;4820060;29;20129;-71
2022/03/09 05:31:45;;;;;;;17.35;9.38;;;;;;;;;;4820397;29;20051;-71
2022/03/09 05:34:11;;;;;;;;;;;;;;;;;;4833981;29;20480;-75
2022/03/09 05:36:37;;;;;;;18.15;10.35;;;;;;;;;;4820464;29;19947;-72
2022/03/09 05:39:04;;;;;;;19.30;9.95;;;;;;;;;;4820322;29;20057;-71
2022/03/09 05:41:30;;;;;;;18.85;10.43;;;;;;;;;;4820025;29;20050;-72
2022/03/09 05:43:57;;;;;;;17.35;10.13;;;;;;;;;;4820108;29;20062;-71
2022/03/09 05:46:23;;;;;;;20.08;10.07;;;;;;;;;;4819372;29;20102;-73
2022/03/09 05:48:49;;;;;;;22.73;10.15;;;;;;;;;;4820065;29;20054;-71
2022/03/09 05:51:15;;;;;;;19.42;10.25;;;;;;;;;;4819502;29;20372;-72
2022/03/09 05:53:42;;;;;;;18.27;10.15;;;;;;;;;;4819825;29;20061;-71
2022/03/09 05:56:08;;;;;;;18.48;9.70;;;;;;;;;;4819266;29;20429;-71
2022/03/09 05:58:34;;;;;;;19.98;11.05;;;;;;;;;;4832532;29;20050;-72
2022/03/09 06:01:00;;;;;;;22.25;10.68;;;;;;;;;;4818815;29;20138;-72
2022/03/09 06:03:26;;;;;;;17.50;9.90;;;;;;;;;;4818151;29;20119;-71
2022/03/09 06:05:52;;;;;;;20.50;10.40;;;;;;;;;;4817958;29;20105;-71
2022/03/09 06:08:18;;;;;;;23.05;10.80;;;;;;;;;;4816954;29;20468;-72
2022/03/09 06:10:44;;;;;;;19.63;10.98;;;;;;;;;;4817127;29;20058;-72
2022/03/09 06:13:10;;;;;;;21.40;10.80;;;;;;;;;;4800392;29;20133;-71
2022/03/09 06:15:36;;;;;;;21.52;11.27;;;;;;;;;;4830705;29;20422;-71
2022/03/09 06:18:03;;;;;;;25.50;10.27;;;;;;;;;;4831711;29;20050;-71
2022/03/09 06:20:29;;;;;;;17.95;10.18;;;;;;;;;;4819764;29;20126;-71
2022/03/09 06:22:55;;;;;;;23.13;10.35;;;;;;;;;;4820185;29;20140;-73
2022/03/09 06:25:27;;;;;;;20.90;10.93;;;;;;;;;;4819779;29;20483;-71
2022/03/09 06:27:53;;;;;;;20.05;10.32;;;;;;;;;;4820157;29;20153;-71
2022/03/09 06:30:20;;;;;;;17.10;10.13;;;;;;;;;;4820279;29;20081;-72
2022/03/09 06:32:46;;;;;;;19.80;11.40;;;;;;;;;;4819692;29;20051;-71
2022/03/09 06:35:12;;;;;;;;;;;;;;;;;;4820751;29;20212;-70
2022/03/09 06:37:38;;;;;;;22.63;11.13;;;;;;;;;;4821304;29;19967;-71
2022/03/09 06:40:05;;;;;;;17.88;10.57;;;;;;;;;;4833361;29;20061;-72
2022/03/09 06:42:33;;;;;;;19.95;10.10;;;;;;;;;;4820104;29;20050;-69
2022/03/09 06:44:59;;;;;;;25.52;10.10;;;;;;;;;;4803485;29;20057;-70
2022/03/09 06:47:26;;;;;;;18.85;10.23;;;;;;;;;;4819679;29;20181;-71
2022/03/09 06:49:52;;;;;;;;;;;;;;;;;;4820420;29;20210;-71
2022/03/09 06:52:18;;;;;;;21.17;10.88;;;;;;;;;;4819825;29;20016;-70
2022/03/09 06:54:44;;;;;;;19.77;10.50;;;;;;;;;;4819772;29;20050;-71
2022/03/09 06:57:10;;;;;;;21.98;10.52;;;;;;;;;;4819080;29;20496;-71
2022/03/09 06:59:37;;;;;;;21.00;9.75;;;;;;;;;;4819615;29;20106;-71
2022/03/09 07:02:03;;;;;;;17.85;10.32;;;;;;;;;;4819868;29;20149;-70
2022/03/09 07:04:29;;;;;;;19.45;10.55;;;;;;;;;;4819582;29;20488;-69
2022/03/09 07:06:55;;;;;;;18.67;10.20;;;;;;;;;;4819798;29;20364;-72
2022/03/09 07:09:22;;;;;;;16.70;10.05;;;;;;;;;;4833801;29;20051;-74
2022/03/09 07:11:48;;;;;;;22.75;11.35;;;;;;;;;;4819660;29;20058;-70
2022/03/09 07:14:14;;;;;;;19.08;10.73;;;;;;;;;;4833479;29;20066;-70
2022/03/09 07:16:40;;;;;;;20.67;10.88;;;;;;;;;;4819171;29;20441;-70
2022/03/09 07:19:06;;;;;;;25.20;10.98;;;;;;;;;;4819444;29;20489;-72
2022/03/09 07:21:32;;;;;;;21.38;10.60;;;;;;;;;;4820206;29;20070;-70
2022/03/09 07:23:58;;;;;;;19.85;10.82;;;;;;;;;;4820693;29;20125;-71
2022/03/09 07:26:25;;;;;;;19.92;10.77;;;;;;;;;;4819943;29;20186;-73
2022/03/09 07:28:51;;;;;;;19.00;10.32;;;;;;;;;;4802664;29;20066;-74
2022/03/09 07:31:17;;;;;;;20.58;9.57;;;;;;;;;;4802520;29;20129;-74
2022/03/09 07:33:43;;;;;;;21.65;10.18;;;;;;;;;;4819382;29;20458;-69
2022/03/09 07:36:10;;;;;;;22.35;10.63;;;;;;;;;;4819212;29;20452;-73
2022/03/09 07:38:38;;;;;;;24.63;10.40;;;;;;;;;;4802665;29;20456;-71
2022/03/09 07:41:04;;;;;;;22.52;10.40;;;;;;;;;;4802541;29;20050;-73
2022/03/09 07:43:30;;;;;;;22.90;10.57;;;;;;;;;;4819185;29;20464;-72
2022/03/09 07:45:57;;;;;;;19.15;9.93;;;;;;;;;;4834234;29;20047;-73
2022/03/09 07:48:23;;;;;;;20.67;10.57;;;;;;;;;;4803041;29;20129;-74
2022/03/09 07:50:50;;;;;;;18.42;9.93;;;;;;;;;;4833344;29;20475;-74
2022/03/09 07:53:16;;;;;;;23.45;10.43;;;;;;;;;;4818573;29;20129;-74
2022/03/09 07:55:43;;;;;;;16.85;9.48;;;;;;;;;;4819068;29;20058;-74
2022/03/09 07:58:09;;;;;;;24.35;10.45;;;;;;;;;;4818535;29;20059;-73
2022/03/09 08:00:35;;;;;;;18.20;10.15;;;;;;;;;;4818523;29;20057;-73
2022/03/09 08:03:01;;;;;;;25.55;10.10;;;;;;;;;;4818894;29;20184;-72
2022/03/09 08:05:27;;;;;;;20.83;10.48;;;;;;;;;;4818458;29;20046;-71
2022/03/09 08:07:55;;;;;;;19.80;9.88;;;;;;;;;;4832249;29;20321;-73
2022/03/09 08:10:21;;;;;;;20.10;10.55;;;;;;;;;;4818214;29;20165;-73
2022/03/09 08:12:47;;;;;;;23.55;10.27;;;;;;;;;;4818206;29;20471;-72
2022/03/09 08:15:16;;;;;;;18.90;9.90;;;;;;;;;;4831830;29;20046;-71
2022/03/09 08:17:42;;;;;;;17.77;9.57;;;;;;;;;;4818110;29;20291;-71
2022/03/09 08:20:08;;;;;;;19.90;10.05;;;;;;;;;;4818160;29;20069;-73
2022/03/09 08:22:34;;;;;;;19.95;9.90;;;;;;;;;;4817817;29;20221;-75
2022/03/09 08:25:02;;;;;;;22.13;9.63;;;;;;;;;;4817977;29;20065;-73
2022/03/09 08:27:28;;;;;;;21.52;10.10;;;;;;;;;;4818182;29;20066;-73
2022/03/09 08:29:54;;;;;;;17.58;8.85;;;;;;;;;;4818002;29;20054;-70
2022/03/09 08:32:22;;;;;;;19.42;9.45;;;;;;;;;;4818165;29;20144;-67
2022/03/09 08:34:49;;;;;;;19.42;9.93;;;;;;;;;;4817639;29;20054;-70
2022/03/09 08:37:15;;;;;;;17.25;9.13;;;;;;;;;;4818309;29;20171;-68
2022/03/09 08:39:48;;;;;;;19.48;9.90;;;;;;;;;;4818177;29;20209;-70
2022/03/09 08:42:14;;;;;;;17.63;10.10;;;;;;;;;;4817417;29;20055;-66
2022/03/09 08:44:40;;;;;;;20.88;10.30;;;;;;;;;;4818044;29;20146;-76
2022/03/09 08:47:06;;;;;;;17.55;9.30;;;;;;;;;;4818687;29;20079;-69
2022/03/09 08:49:33;;;;;;;20.60;9.65;;;;;;;;;;4801882;29;20478;-72
2022/03/09 08:51:59;;;;;;;17.80;9.43;;;;;;;;;;4817734;29;20083;-70
2022/03/09 08:54:25;;;;;;;17.52;9.35;;;;;;;;;;4818199;29;20514;-71
2022/03/09 08:56:51;;;;;;;18.17;9.32;;;;;;;;;;4817932;29;20054;-65
2022/03/09 08:59:18;;;;;;;16.92;9.27;;;;;;;;;;4817939;29;20148;-69
2022/03/09 09:01:44;;;;;;;18.38;9.57;;;;;;;;;;4818288;29;20097;-70
2022/03/09 09:04:10;;;;;;;22.42;9.60;;;;;;;;;;4818326;29;20066;-70
2022/03/09 09:06:37;;;;;;;16.60;8.80;;;;;;;;;;4818115;29;20273;-72
2022/03/09 09:09:03;;;;;;;19.38;9.07;;;;;;;;;;4817950;29;20059;-67
2022/03/09 09:11:29;;;;;;;17.52;9.25;;;;;;;;;;4818000;29;20047;-66
2022/03/09 09:13:55;;;;;;;16.75;8.65;;;;;;;;;;4818054;29;20112;-69
2022/03/09 09:16:21;;;;;;;17.08;9.13;;;;;;;;;;4817788;29;20090;-64
2022/03/09 09:18:48;;;;;;;19.23;9.00;;;;;;;;;;4817701;29;20426;-63
2022/03/09 09:21:14;;;;;;;19.52;9.25;;;;;;;;;;4817543;29;20054;-69
2022/03/09 09:23:41;;;;;;;16.50;8.88;;;;;;;;;;4817214;29;20230;-69
2022/03/09 09:26:10;;;;;;;18.33;9.48;;;;;;;;;;4801127;29;20361;-69
2022/03/09 09:28:36;;;;;;;18.48;9.18;;;;;;;;;;4817653;29;20485;-69
2022/03/09 09:31:02;;;;;;;16.60;8.93;;;;;;;;;;4817576;29;20062;-63
2022/03/09 09:33:28;;;;;;;16.90;8.65;;;;;;;;;;4817218;29;20050;-68
2022/03/09 09:35:55;;;;;;;16.02;8.98;;;;;;;;;;4817947;29;20208;-64
2022/03/09 09:38:21;;;;;;;24.05;9.20;;;;;;;;;;4817526;29;20133;-71
2022/03/09 09:40:48;;;;;;;19.98;8.90;;;;;;;;;;4817188;29;20097;-70
2022/03/09 09:43:14;;;;;;;;;;;;;;;;;;4831906;29;20054;-66
2022/03/09 09:45:41;;;;;;;16.73;9.10;;;;;;;;;;4817323;29;19973;-71
2022/03/09 09:48:07;;;;;;;16.23;8.88;;;;;;;;;;4817043;29;20332;-69
2022/03/09 09:50:34;;;;;;;16.02;8.80;;;;;;;;;;4817141;29;20145;-70
2022/03/09 09:53:03;;;;;;;19.05;9.18;;;;;;;;;;4818321;29;20076;-72
2022/03/09 09:55:29;;;;;;;19.88;9.00;;;;;;;;;;4804500;29;20093;-68
2022/03/09 09:57:56;;;;;;;16.70;9.25;;;;;;;;;;4820572;29;20140;-64
2022/03/09 10:00:22;;;;;;;;;;;;;;;;;;4820950;29;20120;-63
2022/03/09 10:02:51;;;;;;;16.88;8.77;;;;;;;;;;4818859;29;20360;-70
2022/03/09 10:05:18;;;;;;;20.90;9.13;;;;;;;;;;4820731;29;20046;-66
2022/03/09 10:08:03;;;;;;;19.48;9.02;;;;;;;;;;4820560;29;20058;-73
2022/03/09 10:10:39;;;;;;;19.15;9.80;;;;;;;;;;4820975;29;20061;-71
2022/03/09 10:13:19;;;;;;;17.05;9.27;;;;;;;;;;4821045;29;20114;-74
2022/03/09 10:15:46;;;;;;;21.10;9.68;;;;;;;;;;4820428;29;20490;-81
2022/03/09 10:18:13;;;;;;;16.58;9.48;;;;;;;;;;4804308;29;20127;-64
2022/03/09 10:20:40;;;;;;;16.38;9.10;;;;;;;;;;4820211;29;20046;-67
2022/03/09 10:23:08;;;;;;;18.67;10.73;;;;;;;;;;4819791;29;20129;-66
2022/03/09 10:25:34;;;;;;;19.83;9.55;;;;;;;;;;4819874;29;20194;-67
2022/03/09 10:28:06;;;;;;;21.60;9.40;;;;;;;;;;4834047;29;20116;-68
2022/03/09 10:30:39;;;;;;;18.95;9.80;;;;;;;;;;4820082;29;20085;-70
2022/03/09 10:33:09;;;;;;;18.95;10.32;;;;;;;;;;4819675;29;20069;-75
2022/03/09 10:35:42;;;;;;;18.70;9.75;;;;;;;;;;4833379;29;20094;-77
2022/03/09 10:38:09;;;;;;;18.75;9.70;;;;;;;;;;4833995;29;20058;-63
2022/03/09 10:40:45;;;;;;;18.38;9.02;;;;;;;;;;4819935;29;20123;-66
2022/03/09 10:43:13;;;;;;;20.15;10.07;;;;;;;;;;4820305;29;20050;-65
2022/03/09 10:45:58;;;;;;;18.77;9.27;;;;;;;;;;4819778;29;20115;-64
2022/03/09 10:48:24;;;;;;;19.70;8.57;;;;;;;;;;4820021;29;20097;-64
2022/03/09 10:50:53;;;;;;;18.75;9.25;;;;;;;;;;4819940;29;20058;-66
2022/03/09 10:53:22;;;;;;;19.33;9.75;;;;;;;;;;4819797;29;20087;-66
2022/03/09 10:55:50;;;;;;;19.10;9.73;;;;;;;;;;4820134;29;20122;-72
2022/03/09 10:58:20;;;;;;;17.55;9.57;;;;;;;;;;4804055;29;20145;-63
2022/03/09 11:00:47;;;;;;;20.40;9.63;;;;;;;;;;4821508;29;20468;-75
2022/03/09 11:03:18;;;;;;;22.50;10.45;;;;;;;;;;4820854;29;20046;-65
2022/03/09 11:05:52;;;;;;;20.45;10.32;;;;;;;;;;4802628;29;20499;-73
2022/03/09 11:08:20;;;;;;;19.05;9.38;;;;;;;;;;4803117;29;20046;-66
2022/03/09 11:10:46;;;;;;;18.98;10.02;;;;;;;;;;4819135;29;20144;-71
2022/03/09 11:13:13;;;;;;;18.85;9.98;;;;;;;;;;4819314;29;20108;-74
2022/03/09 11:15:43;;;;;;;18.23;9.98;;;;;;;;;;4819351;29;20073;-64
2022/03/09 11:18:18;;;;;;;19.02;9.75;;;;;;;;;;4819360;29;20470;-73
2022/03/09 11:20:45;;;;;;;18.88;10.82;;;;;;;;;;4821399;29;20106;-73
2022/03/09 11:23:12;;;;;;;18.35;9.65;;;;;;;;;;4819434;29;20131;-71
2022/03/09 11:25:39;;;;;;;22.08;10.25;;;;;;;;;;4819521;29;20367;-71
2022/03/09 11:28:06;;;;;;;17.27;9.38;;;;;;;;;;4819247;29;20453;-67
2022/03/09 11:30:36;;;;;;;18.77;9.65;;;;;;;;;;4833098;29;20475;-68
2022/03/09 11:33:03;;;;;;;18.00;9.70;;;;;;;;;;4833162;29;20074;-76
2022/03/09 11:35:38;;;;;;;19.15;10.18;;;;;;;;;;4802799;29;20101;-73
2022/03/09 11:38:24;;;;;;;27.05;10.57;;;;;;;;;;4833037;29;20106;-82
2022/03/09 11:41:08;;;;;;;21.77;10.00;;;;;;;;;;4818724;29;20133;-68
2022/03/09 11:43:34;;;;;;;18.38;10.05;;;;;;;;;;4818883;29;20054;-73
2022/03/09 11:46:00;;;;;;;17.17;10.18;;;;;;;;;;4818999;29;20065;-65
2022/03/09 11:48:46;;;;;;;21.08;9.82;;;;;;;;;;4832941;29;20058;-74
2022/03/09 11:51:13;;;;;;;21.98;10.40;;;;;;;;;;4833556;29;20101;-65
2022/03/09 11:53:39;;;;;;;;;;;;;;;;;;4802902;29;20160;-67
2022/03/09 11:56:21;;;;;;;19.98;9.80;;;;;;;;;;4819342;29;20389;-68
2022/03/09 11:59:08;;;;;;;17.77;9.70;;;;;;;;;;4819027;29;20065;-69
2022/03/09 12:02:00;;;;;;;20.92;10.63;;;;;;;;;;4807263;29;20523;-67
2022/03/09 12:04:54;;;;;;;20.88;10.13;;;;;;;;;;4818348;29;20153;-68
2022/03/09 12:07:33;;;;;;;20.30;10.23;;;;;;;;;;4818801;29;20050;-69
2022/03/09 12:09:59;;;;;;;18.83;10.20;;;;;;;;;;4802385;29;20069;-70
2022/03/09 12:12:30;;;;;;;17.10;9.65;;;;;;;;;;4819292;29;20159;-67
2022/03/09 12:15:00;;;;;;;21.00;9.90;;;;;;;;;;4818525;29;20363;-71
2022/03/09 12:17:30;;;;;;;17.15;9.75;;;;;;;;;;4818075;29;20472;-72
2022/03/09 12:20:15;;;;;;;17.48;9.63;;;;;;;;;;4818092;29;20137;-66
2022/03/09 12:22:56;;;;;;;18.38;10.23;;;;;;;;;;4818074;29;20165;-69
2022/03/09 12:25:40;;;;;;;19.17;10.20;;;;;;;;;;4818092;29;20142;-68
2022/03/09 12:28:25;;;;;;;18.05;10.25;;;;;;;;;;4817996;29;20066;-72
2022/03/09 12:30:56;;;;;;;19.92;10.93;;;;;;;;;;4818166;29;20468;-67
2022/03/09 12:33:29;;;;;;;16.40;9.38;;;;;;;;;;4818421;29;20085;-66
2022/03/09 12:36:11;;;;;;;23.00;9.57;;;;;;;;;;4817842;29;20054;-68
2022/03/09 12:38:55;;;;;;;21.10;10.30;;;;;;;;;;4817931;29;20137;-73
2022/03/09 12:41:27;;;;;;;19.77;10.63;;;;;;;;;;4817957;29;20121;-72
2022/03/09 12:43:55;;;;;;;23.20;10.05;;;;;;;;;;4831513;29;20093;-71
2022/03/09 12:46:21;;;;;;;20.58;10.20;;;;;;;;;;4817644;29;20138;-68
2022/03/09 12:48:47;;;;;;;21.15;10.60;;;;;;;;;;4818172;29;20130;-69
2022/03/09 12:51:14;;;;;;;20.30;10.45;;;;;;;;;;4800530;29;20066;-71
2022/03/09 12:53:42;;;;;;;18.95;10.07;;;;;;;;;;4817879;29;20065;-72
2022/03/09 12:56:15;;;;;;;28.85;10.77;;;;;;;;;;4817688;29;20050;-72
2022/03/09 12:58:41;;;;;;;18.00;9.60;;;;;;;;;;4818751;29;20141;-65
2022/03/09 13:01:12;;;;;;;20.73;11.25;;;;;;;;;;4831610;29;20431;-72
2022/03/09 13:03:39;;;;;;;20.38;10.13;;;;;;;;;;4817632;29;20146;-67
2022/03/09 13:06:22;;;;;;;18.00;9.30;;;;;;;;;;4817809;29;20250;-75
2022/03/09 13:08:48;;;;;;;18.45;9.82;;;;;;;;;;4817712;29;20122;-68
2022/03/09 13:11:26;;;;;;;21.30;10.38;;;;;;;;;;4817410;29;20091;-76
2022/03/09 13:13:52;;;;;;;18.90;9.63;;;;;;;;;;4800869;29;20115;-63
2022/03/09 13:16:27;;;;;;;20.50;10.35;;;;;;;;;;4817164;29;20388;-62
2022/03/09 13:18:55;;;;;;;17.77;9.73;;;;;;;;;;4831393;29;20125;-64
2022/03/09 13:21:28;;;;;;;17.98;10.13;;;;;;;;;;4817635;29;20047;-66
2022/03/09 13:23:58;;;;;;;18.90;9.95;;;;;;;;;;4830834;29;20050;-66
2022/03/09 13:26:26;;;;;;;17.63;9.45;;;;;;;;;;4830994;29;20065;-67
2022/03/09 13:29:00;;;;;;;18.95;9.27;;;;;;;;;;4819433;29;20046;-69
2022/03/09 13:32:07;;;;;;;18.95;9.77;;;;;;;;;;4820997;29;20144;-71
2022/03/09 13:34:41;;;;;;;18.58;10.10;;;;;;;;;;4822659;29;20066;-70
2022/03/09 13:37:12;;;;;;;20.20;10.68;;;;;;;;;;4822945;29;20050;-73
2022/03/09 13:39:46;;;;;;;25.38;10.35;;;;;;;;;;4822534;29;20554;-66
2022/03/09 13:42:15;;;;;;;21.92;9.98;;;;;;;;;;4822934;29;20085;-73
2022/03/09 13:44:41;;;;;;;19.08;10.02;;;;;;;;;;4823098;29;20138;-73
2022/03/09 13:47:11;;;;;;;19.08;9.85;;;;;;;;;;4822609;29;20428;-80
2022/03/09 13:49:50;;;;;;;20.98;10.45;;;;;;;;;;4805757;29;20070;-68
2022/03/09 13:52:31;;;;;;;18.38;10.15;;;;;;;;;;4803791;29;20051;-76
2022/03/09 13:54:59;;;;;;;20.50;11.13;;;;;;;;;;4820273;29;20094;-67
2022/03/09 13:57:28;;;;;;;19.63;10.45;;;;;;;;;;4820246;29;20058;-66
2022/03/09 13:59:54;;;;;;;18.27;9.95;;;;;;;;;;4834125;29;20109;-73
2022/03/09 14:02:21;;;;;;;17.63;9.80;;;;;;;;;;4820328;29;20047;-75
2022/03/09 14:04:48;;;;;;;17.13;8.85;;;;;;;;;;4820647;29;20058;-76
2022/03/09 14:07:15;;;;;;;19.05;9.63;;;;;;;;;;4803748;29;20064;-67
2022/03/09 14:09:41;;;;;;;18.45;10.50;;;;;;;;;;4804074;29;20080;-66
2022/03/09 14:12:17;;;;;;;18.45;10.27;;;;;;;;;;4820124;29;20058;-67
2022/03/09 14:14:46;;;;;;;18.70;10.52;;;;;;;;;;4820072;29;20060;-69
2022/03/09 14:17:12;;;;;;;18.10;10.60;;;;;;;;;;4820048;29;20062;-65
2022/03/09 14:19:38;;;;;;;18.17;10.35;;;;;;;;;;4820012;29;20054;-65
2022/03/09 14:22:04;;;;;;;19.27;10.60;;;;;;;;;;4819913;29;20294;-61
2022/03/09 14:24:30;;;;;;;18.92;9.88;;;;;;;;;;4819731;29;20062;-66
2022/03/09 14:26:56;;;;;;;21.98;11.48;;;;;;;;;;4819877;29;20054;-70
2022/03/09 14:29:23;;;;;;;19.90;10.20;;;;;;;;;;4819930;29;20425;-69
2022/03/09 14:31:49;;;;;;;17.70;10.02;;;;;;;;;;4820052;29;20093;-68
2022/03/09 14:34:15;;;;;;;17.90;9.88;;;;;;;;;;4803771;29;20453;-74
2022/03/09 14:36:41;;;;;;;19.45;10.23;;;;;;;;;;4820325;29;20126;-70